createdAt,value
2024-05-09T00:02:14.948Z,10.76
2024-05-09T00:05:20.067Z,10.11
2024-05-09T00:08:25.559Z,10.14
2024-05-09T00:11:30.663Z,10.19
2024-05-09T00:14:38.332Z,10.26
2024-05-09T00:17:43.856Z,10.17
2024-05-09T00:20:49.025Z,10.26
2024-05-09T00:23:53.989Z,9.93
2024-05-09T00:26:59.259Z,10.05
2024-05-09T00:30:07.507Z,9.89
2024-05-09T00:33:12.615Z,10.26
2024-05-09T00:36:17.681Z,10.07
2024-05-09T00:39:22.600Z,10.20
2024-05-09T00:42:27.680Z,10.33
2024-05-09T00:45:36.388Z,10.08
2024-05-09T00:48:41.558Z,10.10
2024-05-09T00:51:46.622Z,9.90
2024-05-09T00:54:51.751Z,10.06
2024-05-09T00:57:57.763Z,9.96
2024-05-09T01:01:06.095Z,10.01
2024-05-09T01:04:11.663Z,10.00
2024-05-09T01:07:16.948Z,9.72
2024-05-09T01:10:28.024Z,9.76
2024-05-09T01:13:38.871Z,9.82
2024-05-09T01:16:46.631Z,9.53
2024-05-09T01:19:51.618Z,9.37
2024-05-09T01:22:57.239Z,9.40
2024-05-09T01:26:04.855Z,9.30
2024-05-09T01:29:09.918Z,9.34
2024-05-09T01:32:15.210Z,9.36
2024-05-09T01:35:23.650Z,9.04
2024-05-09T01:38:28.925Z,8.99
2024-05-09T01:41:36.570Z,8.74
2024-05-09T01:44:41.521Z,8.95
2024-05-09T01:47:46.701Z,8.87
2024-05-09T01:50:51.919Z,8.92
2024-05-09T01:53:59.184Z,8.74
2024-05-09T01:57:07.170Z,8.49
2024-05-09T02:00:15.680Z,8.73
2024-05-09T02:03:24.261Z,8.33
2024-05-09T02:06:29.258Z,8.53
2024-05-09T02:09:34.265Z,8.75
2024-05-09T02:12:42.090Z,8.27
2024-05-09T02:15:47.384Z,7.95
2024-05-09T02:18:52.651Z,8.38
2024-05-09T02:21:57.611Z,7.94
2024-05-09T02:25:02.528Z,7.76
2024-05-09T02:28:10.617Z,7.48
2024-05-09T02:31:16.039Z,7.46
2024-05-09T02:34:21.159Z,7.58
2024-05-09T02:37:26.085Z,7.65
2024-05-09T02:40:36.533Z,7.59
2024-05-09T02:43:46.359Z,7.31
2024-05-09T02:46:52.780Z,7.18
2024-05-09T02:49:55.330Z,7.37
2024-05-09T02:53:00.835Z,7.61
2024-05-09T02:56:03.523Z,7.84
2024-05-09T02:59:11.579Z,7.88
2024-05-09T03:02:14.037Z,7.94
2024-05-09T03:05:19.161Z,8.04
2024-05-09T03:08:21.601Z,8.07
2024-05-09T03:11:27.604Z,8.00
2024-05-09T03:14:32.684Z,8.07
2024-05-09T03:17:37.824Z,7.59
2024-05-09T03:20:40.557Z,8.19
2024-05-09T03:23:46.566Z,8.22
2024-05-09T03:26:49.007Z,7.73
2024-05-09T03:29:57.435Z,7.72
2024-05-09T03:32:59.916Z,7.31
2024-05-09T03:36:09.790Z,7.16
2024-05-09T03:39:16.042Z,7.12
2024-05-09T03:42:21.055Z,7.14
2024-05-09T03:45:28.715Z,7.51
2024-05-09T03:51:39.853Z,8.02
2024-05-09T03:54:45.750Z,7.97
2024-05-09T03:57:50.793Z,8.20
2024-05-09T04:00:58.547Z,7.91
2024-05-09T04:04:01.016Z,7.84
2024-05-09T04:07:06.247Z,8.13
2024-05-09T04:10:16.784Z,8.16
2024-05-09T04:13:25.759Z,7.99
2024-05-09T04:16:30.940Z,7.56
2024-05-09T04:19:36.038Z,8.02
2024-05-09T04:22:38.496Z,8.30
2024-05-09T04:25:47.034Z,8.39
2024-05-09T04:28:52.375Z,8.33
2024-05-09T04:32:01.786Z,8.85
2024-05-09T04:35:05.351Z,8.83
2024-05-09T04:38:11.772Z,8.35
2024-05-09T04:41:14.286Z,8.38
2024-05-09T04:44:19.457Z,8.52
2024-05-09T04:47:27.282Z,8.66
2024-05-09T04:50:36.303Z,8.77
2024-05-09T04:53:43.978Z,8.85
2024-05-09T04:56:46.597Z,8.77
2024-05-09T04:59:51.943Z,8.93
2024-05-09T05:02:57.144Z,9.69
2024-05-09T05:06:02.655Z,9.47
2024-05-09T05:09:05.308Z,10.18
2024-05-09T05:12:31.114Z,10.37
2024-05-09T05:15:33.580Z,10.52
2024-05-09T05:18:41.477Z,10.63
2024-05-09T05:21:46.954Z,10.96
2024-05-09T05:24:49.291Z,11.10
2024-05-09T05:27:54.692Z,10.94
2024-05-09T05:30:57.181Z,11.28
2024-05-09T05:34:04.895Z,11.29
2024-05-09T05:37:07.448Z,11.66
2024-05-09T05:40:20.688Z,11.70
2024-05-09T05:43:30.045Z,12.07
2024-05-09T05:46:35.115Z,12.12
2024-05-09T05:49:40.354Z,12.74
2024-05-09T05:52:45.418Z,12.32
2024-05-09T05:55:47.761Z,12.81
2024-05-09T05:58:55.794Z,12.84
2024-05-09T06:01:58.309Z,12.81
2024-05-09T06:05:06.508Z,13.15
2024-05-09T06:08:11.859Z,13.40
2024-05-09T06:11:14.931Z,13.51
2024-05-09T06:14:20.173Z,13.86
2024-05-09T06:17:22.708Z,14.36
2024-05-09T06:20:35.924Z,14.15
2024-05-09T06:23:45.874Z,14.46
2024-05-09T06:26:51.025Z,14.56
2024-05-09T06:29:53.475Z,14.88
2024-05-09T06:32:58.758Z,14.93
2024-05-09T06:36:04.224Z,15.03
2024-05-09T06:39:10.281Z,15.22
2024-05-09T06:42:12.633Z,15.02
2024-05-09T06:45:18.486Z,15.21
2024-05-09T06:48:22.357Z,15.73
2024-05-09T06:51:30.379Z,15.82
2024-05-09T06:54:32.857Z,15.92
2024-05-09T06:57:40.582Z,15.91
2024-05-09T07:00:44.940Z,16.34
2024-05-09T07:03:50.034Z,15.91
2024-05-09T07:06:57.688Z,16.01
2024-05-09T07:10:00.034Z,16.40
2024-05-09T07:13:05.371Z,16.68
2024-05-09T07:16:07.827Z,16.43
2024-05-09T07:19:13.066Z,15.39
2024-05-09T07:22:20.902Z,16.32
2024-05-09T07:25:23.544Z,16.90
2024-05-09T07:28:28.568Z,16.96
2024-05-09T07:31:31.716Z,15.95
2024-05-09T07:34:37.039Z,16.29
2024-05-09T07:37:42.336Z,16.74
2024-05-09T07:40:47.371Z,17.45
2024-05-09T07:43:52.454Z,17.15
2024-05-09T07:48:13.937Z,17.05
2024-05-09T07:53:39.892Z,16.80
2024-05-09T07:56:49.729Z,16.53
2024-05-09T07:59:54.981Z,17.40
2024-05-09T08:03:00.086Z,16.85
2024-05-09T08:06:02.407Z,17.36
2024-05-09T08:09:13.874Z,16.80
2024-05-09T08:12:24.210Z,17.61
2024-05-09T08:15:26.729Z,17.73
2024-05-09T08:18:31.992Z,17.91
2024-05-09T08:21:34.553Z,17.96
2024-05-09T08:24:42.304Z,17.74
2024-05-09T08:27:44.811Z,17.76
2024-05-09T08:30:50.088Z,18.17
2024-05-09T08:33:52.789Z,18.09
2024-05-09T08:37:03.720Z,17.68
2024-05-09T08:40:24.080Z,17.77
2024-05-09T08:43:38.151Z,18.08
2024-05-09T08:46:44.452Z,18.36
2024-05-09T08:49:58.431Z,18.41
2024-05-09T08:53:03.525Z,18.98
2024-05-09T08:56:14.176Z,18.69
2024-05-09T08:59:24.055Z,18.67
2024-05-09T09:02:27.871Z,19.09
2024-05-09T09:05:34.440Z,19.51
2024-05-09T09:08:39.519Z,18.22
2024-05-09T09:11:47.441Z,19.27
2024-05-09T09:14:52.586Z,17.87
2024-05-09T09:17:59.724Z,18.96
2024-05-09T09:21:05.198Z,18.59
2024-05-09T09:24:10.021Z,19.59
2024-05-09T09:27:19.420Z,19.44
2024-05-09T09:30:34.034Z,19.53
2024-05-09T09:33:45.082Z,19.85
2024-05-09T09:36:49.172Z,18.99
2024-05-09T09:39:54.781Z,19.12
2024-05-09T09:43:01.683Z,19.72
2024-05-09T09:46:12.520Z,18.80
2024-05-09T09:49:19.653Z,19.95
2024-05-09T09:52:25.413Z,20.58
2024-05-09T09:55:28.754Z,19.91
2024-05-09T09:58:39.105Z,20.90
2024-05-09T10:01:44.650Z,20.10
2024-05-09T10:04:47.364Z,19.74
2024-05-09T10:07:53.833Z,20.18
2024-05-09T10:10:57.419Z,20.03
2024-05-09T10:14:06.020Z,20.33
2024-05-09T10:17:08.435Z,20.54
2024-05-09T10:20:21.367Z,20.57
2024-05-09T10:23:32.418Z,20.96
2024-05-09T10:26:36.489Z,20.31
2024-05-09T10:29:54.940Z,19.80
2024-05-09T10:32:57.455Z,19.66
2024-05-09T10:36:05.975Z,20.25
2024-05-09T10:39:13.641Z,20.36
2024-05-09T10:42:17.041Z,20.13
2024-05-09T10:45:24.935Z,20.12
2024-05-09T10:48:27.596Z,19.90
2024-05-09T10:51:33.008Z,20.45
2024-05-09T10:54:38.815Z,20.05
2024-05-09T10:57:44.147Z,20.11
2024-05-09T11:00:50.375Z,20.18
2024-05-09T11:03:55.623Z,20.41
2024-05-09T11:07:04.588Z,20.25
2024-05-09T11:10:12.359Z,20.60
2024-05-09T11:13:17.775Z,21.12
2024-05-09T11:16:22.918Z,21.32
2024-05-09T11:19:33.311Z,21.12
2024-05-09T11:22:35.842Z,21.04
2024-05-09T11:25:41.054Z,20.73
2024-05-09T11:28:45.343Z,20.77
2024-05-09T11:31:53.573Z,21.35
2024-05-09T11:34:55.950Z,21.37
2024-05-09T11:38:01.160Z,21.58
2024-05-09T11:41:07.472Z,22.29
2024-05-09T11:44:13.282Z,22.02
2024-05-09T11:47:21.934Z,21.52
2024-05-09T11:50:29.957Z,21.88
2024-05-09T11:53:39.727Z,22.79
2024-05-09T11:56:42.204Z,21.68
2024-05-09T11:59:47.203Z,22.11
2024-05-09T12:02:56.324Z,22.28
2024-05-09T12:05:59.012Z,22.03
2024-05-09T12:09:04.389Z,21.27
2024-05-09T12:12:06.969Z,21.15
2024-05-09T12:15:12.090Z,21.58
2024-05-09T12:18:17.210Z,21.74
2024-05-09T12:21:22.138Z,21.37
2024-05-09T12:24:25.312Z,20.58
2024-05-09T12:27:30.670Z,21.52
2024-05-09T12:30:40.209Z,21.14
2024-05-09T12:33:49.377Z,20.69
2024-05-09T12:36:52.070Z,20.23
2024-05-09T12:39:57.347Z,20.55
2024-05-09T12:43:02.680Z,20.53
2024-05-09T12:46:08.378Z,20.40
2024-05-09T12:49:16.389Z,20.50
2024-05-09T12:52:22.727Z,21.54
2024-05-09T12:55:25.186Z,21.83
2024-05-09T12:58:30.177Z,21.23
2024-05-09T13:01:35.404Z,20.82
2024-05-09T13:04:40.565Z,20.91
2024-05-09T13:07:45.618Z,21.42
2024-05-09T13:10:48.619Z,20.75
2024-05-09T13:13:53.712Z,20.90
2024-05-09T13:16:56.221Z,21.52
2024-05-09T13:20:05.588Z,21.18
2024-05-09T13:23:10.714Z,21.00
2024-05-09T13:26:13.184Z,21.22
2024-05-09T13:29:18.491Z,22.42
2024-05-09T13:32:20.854Z,22.40
2024-05-09T13:35:28.515Z,23.33
2024-05-09T13:38:31.141Z,22.70
2024-05-09T13:41:36.119Z,21.66
2024-05-09T13:44:38.689Z,21.15
2024-05-09T13:47:44.162Z,21.06
2024-05-09T13:50:52.862Z,23.16
2024-05-09T13:53:59.442Z,23.22
2024-05-09T13:57:01.831Z,23.73
2024-05-09T14:00:22.307Z,22.47
2024-05-09T14:03:33.860Z,22.99
2024-05-09T14:06:41.775Z,23.20
2024-05-09T14:09:47.285Z,22.96
2024-05-09T14:12:55.053Z,23.57
2024-05-09T14:15:57.942Z,22.69
2024-05-09T14:19:04.992Z,23.27
2024-05-09T14:22:12.920Z,22.18
2024-05-09T14:25:15.518Z,22.22
2024-05-09T14:28:21.315Z,22.01
2024-05-09T14:31:26.925Z,22.35
2024-05-09T14:34:29.800Z,23.35
2024-05-09T14:37:39.724Z,23.71
2024-05-09T14:40:44.053Z,22.02
2024-05-09T14:44:27.696Z,22.33
2024-05-09T14:48:06.559Z,22.98
2024-05-09T14:51:42.460Z,23.33
2024-05-09T14:55:03.994Z,23.94
2024-05-09T14:58:10.195Z,23.75
2024-05-09T15:01:15.754Z,23.93
2024-05-09T15:04:18.530Z,23.70
2024-05-09T15:07:23.968Z,23.47
2024-05-09T15:10:35.560Z,23.08
2024-05-09T15:13:42.038Z,23.11
2024-05-09T15:16:44.705Z,22.79
2024-05-09T15:19:50.202Z,22.84
2024-05-09T15:22:52.803Z,23.78
2024-05-09T15:26:00.794Z,23.25
2024-05-09T15:29:03.554Z,22.36
2024-05-09T15:32:09.319Z,22.59
2024-05-09T15:35:14.606Z,22.84
2024-05-09T15:38:20.907Z,22.29
2024-05-09T15:41:29.159Z,22.63
2024-05-09T15:44:35.408Z,22.55
2024-05-09T15:47:40.979Z,22.29
2024-05-09T15:50:43.964Z,22.45
2024-05-09T15:53:50.816Z,23.31
2024-05-09T15:56:56.336Z,22.22
2024-05-09T16:00:02.029Z,22.06
2024-05-09T16:03:23.686Z,22.30
2024-05-09T16:06:29.064Z,22.46
2024-05-09T16:09:33.084Z,21.76
2024-05-09T16:12:44.475Z,21.84
2024-05-09T16:15:47.606Z,21.97
2024-05-09T16:18:56.279Z,21.88
2024-05-09T16:22:00.714Z,21.44
2024-05-09T16:25:06.528Z,21.10
2024-05-09T16:28:17.612Z,21.13
2024-05-09T16:31:20.487Z,21.15
2024-05-09T16:34:26.215Z,21.52
2024-05-09T16:37:31.893Z,21.49
2024-05-09T16:40:38.961Z,21.50
2024-05-09T16:43:49.232Z,21.13
2024-05-09T16:46:51.899Z,20.90
2024-05-09T16:49:57.295Z,21.03
2024-05-09T16:53:00.394Z,20.77
2024-05-09T16:56:06.762Z,20.67
2024-05-09T16:59:14.900Z,20.27
2024-05-09T17:02:18.535Z,20.22
2024-05-09T17:05:24.674Z,20.13
2024-05-09T17:08:27.650Z,19.63
2024-05-09T17:11:36.274Z,19.31
2024-05-09T17:14:44.586Z,19.15
2024-05-09T17:17:51.725Z,18.79
2024-05-09T17:20:56.925Z,18.15
2024-05-09T17:23:59.595Z,18.22
2024-05-09T17:27:04.997Z,17.95
2024-05-09T17:30:21.163Z,18.34
2024-05-09T17:33:31.607Z,18.52
2024-05-09T17:36:36.900Z,17.78
2024-05-09T17:39:39.922Z,17.66
2024-05-09T17:42:45.298Z,17.61
2024-05-09T17:45:53.585Z,17.66
2024-05-09T17:48:58.779Z,17.33
2024-05-09T17:52:05.632Z,17.11
2024-05-09T17:55:08.548Z,16.97
2024-05-09T17:58:15.763Z,16.74
2024-05-09T18:01:24.360Z,16.35
2024-05-09T18:04:29.069Z,16.02
2024-05-09T18:07:36.530Z,15.90
2024-05-09T18:10:44.877Z,15.70
2024-05-09T18:13:47.798Z,15.56
2024-05-09T18:16:57.046Z,15.43
2024-05-09T18:20:02.070Z,15.31
2024-05-09T18:23:18.779Z,15.51
2024-05-09T18:26:29.976Z,15.55
2024-05-09T18:29:32.569Z,15.33
2024-05-09T18:32:40.582Z,15.63
2024-05-09T18:35:46.793Z,15.60
2024-05-09T18:38:50.258Z,15.46
2024-05-09T18:41:55.930Z,15.40
2024-05-09T18:44:58.852Z,15.63
2024-05-09T18:48:08.179Z,15.51
2024-05-09T18:51:14.966Z,15.69
2024-05-09T18:54:20.525Z,15.60
2024-05-09T18:57:25.817Z,15.30
2024-05-09T19:00:34.761Z,15.08
2024-05-09T19:03:46.380Z,14.90
2024-05-09T19:06:49.602Z,14.82
2024-05-09T19:09:54.971Z,14.67
2024-05-09T19:12:57.921Z,14.25
2024-05-09T19:16:03.586Z,14.05
2024-05-09T19:19:10.153Z,13.81
2024-05-09T19:22:15.495Z,13.80
2024-05-09T19:25:17.978Z,13.70
2024-05-09T19:28:23.276Z,13.86
2024-05-09T19:31:29.075Z,13.70
2024-05-09T19:34:34.490Z,13.21
2024-05-09T19:37:41.447Z,13.30
2024-05-09T19:40:48.951Z,13.39
2024-05-09T19:43:54.570Z,13.04
2024-05-09T19:46:57.790Z,12.87
2024-05-09T19:50:10.781Z,12.82
2024-05-09T19:53:22.446Z,12.90
2024-05-09T19:56:25.067Z,12.82
2024-05-09T19:59:30.353Z,12.87
2024-05-09T20:02:35.720Z,12.44
2024-05-09T20:05:42.871Z,12.66
2024-05-09T20:08:48.297Z,12.56
2024-05-09T20:11:50.824Z,12.61
2024-05-09T20:14:56.049Z,12.46
2024-05-09T20:18:01.346Z,12.33
2024-05-09T20:21:25.351Z,12.19
2024-05-09T20:24:33.943Z,12.16
2024-05-09T20:27:50.468Z,12.23
2024-05-09T20:30:55.998Z,12.29
2024-05-09T20:33:58.554Z,12.35
2024-05-09T20:37:06.837Z,12.27
2024-05-09T20:40:18.158Z,11.90
2024-05-09T20:43:30.546Z,11.61
2024-05-09T20:46:33.479Z,11.65
2024-05-09T20:49:39.057Z,11.63
2024-05-09T20:52:44.696Z,11.45
2024-05-09T20:55:51.722Z,11.19
2024-05-09T20:58:55.343Z,10.99
2024-05-09T21:02:00.904Z,10.99
2024-05-09T21:05:04.357Z,10.72
2024-05-09T21:08:12.607Z,11.00
2024-05-09T21:11:23.143Z,11.17
2024-05-09T21:14:29.089Z,10.89
2024-05-09T21:17:32.589Z,11.10
2024-05-09T21:20:38.180Z,10.78
2024-05-09T21:23:43.592Z,10.52
2024-05-09T21:26:49.390Z,10.47
2024-05-09T21:29:53.541Z,10.53
2024-05-09T21:33:05.141Z,10.30
2024-05-09T21:36:12.505Z,10.18
2024-05-09T21:39:20.303Z,10.34
2024-05-09T21:42:25.702Z,10.43
2024-05-09T21:45:28.558Z,10.36
2024-05-09T21:48:33.917Z,10.19
2024-05-09T21:51:37.212Z,10.14
2024-05-09T21:54:45.377Z,10.26
2024-05-09T21:57:47.958Z,10.22
2024-05-09T22:00:53.367Z,10.09
2024-05-09T22:03:56.516Z,10.16
2024-05-09T22:07:01.866Z,9.73
2024-05-09T22:10:12.880Z,9.85
2024-05-09T22:13:24.961Z,9.82
2024-05-09T22:16:27.552Z,9.58
2024-05-09T22:19:35.257Z,9.79
2024-05-09T22:22:37.870Z,9.59
2024-05-09T22:25:45.644Z,9.52
2024-05-09T22:28:48.362Z,9.39
2024-05-09T22:31:53.579Z,9.38
2024-05-09T22:34:56.673Z,9.30
2024-05-09T22:38:02.200Z,9.06
2024-05-09T22:41:09.355Z,8.78
2024-05-09T22:44:14.566Z,9.40
2024-05-09T22:47:17.068Z,9.44
2024-05-09T22:50:32.780Z,9.33
2024-05-09T22:53:38.961Z,9.35
2024-05-09T22:56:46.851Z,9.41
2024-05-09T22:59:49.353Z,9.37
2024-05-09T23:02:54.635Z,9.38
2024-05-09T23:06:00.063Z,9.30
2024-05-09T23:09:02.672Z,9.18
2024-05-09T23:12:10.723Z,9.36
2024-05-09T23:15:13.387Z,9.20
2024-05-09T23:18:18.762Z,9.07
2024-05-09T23:21:24.233Z,8.88
2024-05-09T23:24:26.831Z,8.65
2024-05-09T23:27:34.714Z,8.82
2024-05-09T23:30:40.110Z,8.66
2024-05-09T23:33:48.686Z,8.72
2024-05-09T23:36:51.524Z,8.65
2024-05-09T23:39:56.724Z,8.47
2024-05-09T23:43:02.038Z,7.97
2024-05-09T23:46:07.573Z,8.26
2024-05-09T23:49:11.411Z,7.92
2024-05-09T23:52:16.528Z,8.19
2024-05-09T23:55:19.063Z,8.37
2024-05-09T23:58:28.504Z,7.89
